sensor_id;sensor_type;location;lat;lon;timestamp;pressure;altitude;pressure_sealevel;temperature;humidity
56198;BME280;42700;42.524;12.052;2022-12-10T09:14:18;110873.03;;;12.71;100.00
56198;BME280;42700;42.524;12.052;2022-12-10T09:16:43;110454.94;;;12.80;100.00
56198;BME280;42700;42.524;12.052;2022-12-10T09:19:09;109109.97;;;13.00;100.00
56198;BME280;42700;42.524;12.052;2022-12-10T09:21:34;108965.44;;;13.14;100.00
56198;BME280;42700;42.524;12.052;2022-12-10T09:24:00;109676.97;;;13.46;100.00
56198;BME280;42700;42.524;12.052;2022-12-10T09:26:26;110895.59;;;13.60;100.00
56198;BME280;42700;42.524;12.052;2022-12-10T09:28:51;111254.69;;;13.44;100.00
56198;BME280;42700;42.524;12.052;2022-12-10T09:31:18;111036.09;;;13.55;100.00
56198;BME280;42700;42.524;12.052;2022-12-10T09:33:44;111069.94;;;13.65;100.00
56198;BME280;42700;42.524;12.052;2022-12-10T09:36:11;112551.19;;;13.87;100.00
56198;BME280;42700;42.524;12.052;2022-12-10T09:38:37;113274.78;;;13.81;100.00
56198;BME280;42700;42.524;12.052;2022-12-10T09:41:30;114590.59;;;13.89;100.00
56198;BME280;42700;42.524;12.052;2022-12-10T09:43:55;114425.00;;;13.73;100.00
56198;BME280;42700;42.524;12.052;2022-12-10T09:46:31;116310.31;;;13.91;100.00
56198;BME280;42700;42.524;12.052;2022-12-10T09:51:45;119571.31;;;14.15;100.00
56198;BME280;42700;42.524;12.052;2022-12-10T09:56:48;116424.09;;;14.14;100.00
56198;BME280;42700;42.524;12.052;2022-12-10T09:59:19;111547.69;;;14.08;100.00
56198;BME280;42700;42.524;12.052;2022-12-10T10:01:47;105301.09;;;14.06;100.00
56198;BME280;42700;42.524;12.052;2022-12-10T10:04:16;99063.13;;;14.08;100.00
56198;BME280;42700;42.524;12.052;2022-12-10T10:06:41;95228.69;;;14.13;100.00
56198;BME280;42700;42.524;12.052;2022-12-10T10:09:07;95353.09;;;14.19;100.00
56198;BME280;42700;42.524;12.052;2022-12-10T10:11:36;101404.88;;;14.15;100.00
56198;BME280;42700;42.524;12.052;2022-12-10T10:14:12;113413.00;;;14.10;100.00
56198;BME280;42700;42.524;12.052;2022-12-10T10:16:48;123030.09;;;14.09;100.00
56198;BME280;42700;42.524;12.052;2022-12-10T10:19:16;127604.38;;;14.16;100.00
56198;BME280;42700;42.524;12.052;2022-12-10T10:21:47;131660.13;;;14.23;100.00
56198;BME280;42700;42.524;12.052;2022-12-10T10:24:20;134035.53;;;14.17;100.00
56198;BME280;42700;42.524;12.052;2022-12-10T10:26:46;135636.66;;;14.16;100.00
56198;BME280;42700;42.524;12.052;2022-12-10T10:29:14;137042.75;;;14.12;100.00
56198;BME280;42700;42.524;12.052;2022-12-10T10:31:43;137687.53;;;14.04;100.00
56198;BME280;42700;42.524;12.052;2022-12-10T10:34:19;138302.28;;;14.04;100.00
56198;BME280;42700;42.524;12.052;2022-12-10T10:36:45;138881.63;;;14.01;100.00
56198;BME280;42700;42.524;12.052;2022-12-10T10:41:38;137028.25;;;13.94;100.00
56198;BME280;42700;42.524;12.052;2022-12-10T10:44:05;132341.91;;;13.89;100.00
56198;BME280;42700;42.524;12.052;2022-12-10T10:46:37;125103.41;;;13.93;100.00
56198;BME280;42700;42.524;12.052;2022-12-10T11:16:45;109485.47;;;13.35;100.00
56198;BME280;42700;42.524;12.052;2022-12-10T11:19:18;111329.34;;;13.52;100.00
56198;BME280;42700;42.524;12.052;2022-12-10T12:14:02;102845.91;;;11.85;100.00
56198;BME280;42700;42.524;12.052;2022-12-10T12:16:33;103871.06;;;12.14;100.00
56198;BME280;42700;42.524;12.052;2022-12-10T12:21:38;123744.84;;;12.37;100.00
56198;BME280;42700;42.524;12.052;2022-12-10T12:26:38;109457.28;;;12.97;100.00
56198;BME280;42700;42.524;12.052;2022-12-10T12:31:37;107972.09;;;13.19;100.00
56198;BME280;42700;42.524;12.052;2022-12-10T12:34:05;111691.59;;;13.14;100.00
56198;BME280;42700;42.524;12.052;2022-12-10T12:36:32;112873.28;;;13.14;100.00
56198;BME280;42700;42.524;12.052;2022-12-10T12:46:55;97215.38;;;13.28;100.00
56198;BME280;42700;42.524;12.052;2022-12-10T12:49:25;100067.34;;;13.41;100.00
56198;BME280;42700;42.524;12.052;2022-12-10T12:52:03;102521.13;;;13.51;100.00
56198;BME280;42700;42.524;12.052;2022-12-10T12:54:31;104462.25;;;13.58;100.00
56198;BME280;42700;42.524;12.052;2022-12-10T12:57:07;106614.22;;;13.66;100.00
56198;BME280;42700;42.524;12.052;2022-12-10T12:59:46;108831.78;;;13.68;100.00
56198;BME280;42700;42.524;12.052;2022-12-10T13:02:39;109571.25;;;13.68;100.00
56198;BME280;42700;42.524;12.052;2022-12-10T13:05:16;108735.69;;;13.72;100.00
56198;BME280;42700;42.524;12.052;2022-12-10T13:07:43;108214.84;;;13.73;100.00
56198;BME280;42700;42.524;12.052;2022-12-10T13:10:17;110469.16;;;13.73;100.00
56198;BME280;42700;42.524;12.052;2022-12-10T13:12:47;112204.38;;;13.75;100.00
56198;BME280;42700;42.524;12.052;2022-12-10T13:15:14;114013.53;;;13.75;100.00
56198;BME280;42700;42.524;12.052;2022-12-10T13:18:00;115620.50;;;13.80;100.00
56198;BME280;42700;42.524;12.052;2022-12-10T13:22:59;116698.78;;;13.83;100.00
56198;BME280;42700;42.524;12.052;2022-12-10T13:25:38;117297.50;;;14.02;100.00
56198;BME280;42700;42.524;12.052;2022-12-10T13:28:50;117574.38;;;14.15;100.00
56198;BME280;42700;42.524;12.052;2022-12-10T13:33:51;117812.16;;;14.38;100.00
56198;BME280;42700;42.524;12.052;2022-12-10T13:36:27;118123.94;;;14.49;100.00
56198;BME280;42700;42.524;12.052;2022-12-10T13:38:57;117647.72;;;14.58;100.00
56198;BME280;42700;42.524;12.052;2022-12-10T13:41:23;117302.19;;;14.63;100.00
56198;BME280;42700;42.524;12.052;2022-12-10T13:49:22;117679.41;;;14.75;100.00
56198;BME280;42700;42.524;12.052;2022-12-10T13:52:07;118291.38;;;14.68;100.00
56198;BME280;42700;42.524;12.052;2022-12-10T14:05:31;116249.22;;;14.71;100.00
56198;BME280;42700;42.524;12.052;2022-12-10T14:08:01;116802.41;;;14.77;100.00
56198;BME280;42700;42.524;12.052;2022-12-10T14:10:30;117466.28;;;14.65;100.00
56198;BME280;42700;42.524;12.052;2022-12-10T14:12:56;117387.50;;;14.35;100.00
56198;BME280;42700;42.524;12.052;2022-12-10T14:15:24;117728.56;;;14.50;100.00
56198;BME280;42700;42.524;12.052;2022-12-10T14:17:54;117601.09;;;14.48;100.00
56198;BME280;42700;42.524;12.052;2022-12-10T14:20:24;116829.13;;;13.77;100.00
56198;BME280;42700;42.524;12.052;2022-12-10T14:22:53;116694.28;;;13.73;100.00
56198;BME280;42700;42.524;12.052;2022-12-10T14:25:43;116325.75;;;13.71;100.00
56198;BME280;42700;42.524;12.052;2022-12-10T14:28:12;116061.34;;;13.77;100.00
56198;BME280;42700;42.524;12.052;2022-12-10T14:30:40;115920.03;;;14.04;100.00
56198;BME280;42700;42.524;12.052;2022-12-10T14:33:07;115520.56;;;13.87;100.00
56198;BME280;42700;42.524;12.052;2022-12-10T14:35:34;114904.56;;;13.47;100.00
56198;BME280;42700;42.524;12.052;2022-12-10T14:37:59;114816.09;;;13.97;100.00
56198;BME280;42700;42.524;12.052;2022-12-10T14:40:28;114416.03;;;14.13;100.00
56198;BME280;42700;42.524;12.052;2022-12-10T14:42:59;113980.16;;;14.15;100.00
